aviador You're here:

YSRI Decoded Metar

RICHMOND in AUSTRALIA
Report Time2017-06-24 17:00:00
UTC Time2017-06-24 17:22:50
Flight Rules vfr VFR
WindCalm
Visibility9999 m
Phenomena:N/A
Clouds:N/A
CeilingNone
Temp04°C (ISA -11)
Dew Point04°C (100% RH)
AAT2.7°C
QNH1017 hPa
Density Alt-1,273 ft
Elevation69 ft
Report Wrong Elevation
Raw Report
YSRI 241700Z AUTO 00000KT 9999 // NCD 04/04 Q1017=

Extra information for YSRI:More info

Metar Taf Metar & Taf Last 4 Metars F.Rules Stats Wind Profile Meteogram Temp Stats Airport Information Weather charts Add Link Nearby VenuesMetar ALERT Operation Metar Decoded Social comments